Time;durP1;ratioP1;P1;durP2;ratioP2;P2;SDS_P1;SDS_P2;PMS_P1;PMS_P2;Temp;Humidity;BMP_temperature;BMP_pressure;BME280_temperature;BME280_humidity;BME280_pressure;Samples;Min_cycle;Max_cycle;Signal;HPM_P1;HPM_P2
2022/01/28 00:01:49;;;;;;;15.90;3.80;;;5.40;99.90;;;;;;4990431;28;20048;-75
2022/01/28 00:04:17;;;;;;;12.75;3.75;;;5.40;99.90;;;;;;4980825;28;20130;-74
2022/01/28 00:06:42;;;;;;;15.50;4.18;;;5.40;99.90;;;;;;5014042;28;20060;-75
2022/01/28 00:09:09;;;;;;;14.82;5.30;;;5.50;99.90;;;;;;4993816;28;20034;-75
2022/01/28 00:11:35;;;;;;;12.63;4.03;;;5.50;99.90;;;;;;5010204;28;20464;-75
2022/01/28 00:14:28;;;;;;;14.15;5.43;;;5.50;99.90;;;;;;5013852;28;20045;-75
2022/01/28 00:38:54;;;;;;;16.52;4.35;;;5.50;99.90;;;;;;4929704;29;20081;-75
2022/01/28 00:41:20;;;;;;;11.73;3.95;;;5.50;99.90;;;;;;4927114;29;20602;-75
2022/01/28 00:43:45;;;;;;;9.38;3.53;;;5.50;99.90;;;;;;4955681;28;20387;-75
2022/01/28 00:46:11;;;;;;;9.50;3.95;;;5.60;99.90;;;;;;5008044;28;20095;-75
2022/01/28 00:48:37;;;;;;;11.38;3.30;;;5.50;99.90;;;;;;5014491;28;20132;-75
2022/01/28 00:51:03;;;;;;;8.50;3.05;;;5.60;99.90;;;;;;5011575;28;20037;-75
2022/01/28 00:53:29;;;;;;;8.23;3.08;;;5.60;99.90;;;;;;5010235;28;20052;-75
2022/01/28 00:55:55;;;;;;;15.27;3.53;;;5.60;99.90;;;;;;5032331;28;20029;-75
2022/01/28 00:58:22;;;;;;;17.58;4.43;;;5.50;99.90;;;;;;5013954;28;20045;-81
2022/01/28 01:00:48;;;;;;;10.13;3.42;;;5.50;99.90;;;;;;5009618;28;20096;-81
2022/01/28 01:03:13;;;;;;;19.77;4.65;;;5.50;99.90;;;;;;4992817;28;20053;-81
2022/01/28 01:05:39;;;;;;;15.90;4.00;;;5.40;99.90;;;;;;5008694;28;20457;-80
2022/01/28 01:08:06;;;;;;;12.13;4.72;;;5.40;99.90;;;;;;4996673;28;20037;-80
2022/01/28 01:10:33;;;;;;;17.73;4.60;;;5.40;99.90;;;;;;5012234;28;20034;-80
2022/01/28 01:12:59;;;;;;;8.55;3.85;;;5.30;99.90;;;;;;5007837;28;20044;-80
2022/01/28 01:15:31;;;;;;;19.05;5.25;;;5.40;99.90;;;;;;5000259;28;20397;-80
2022/01/28 01:18:15;;;;;;;12.27;4.40;;;5.40;99.90;;;;;;4997259;28;20041;-80
2022/01/28 01:23:22;;;;;;;14.43;4.18;;;5.30;99.90;;;;;;5008034;28;20088;-80
2022/01/28 01:25:56;;;;;;;23.13;6.53;;;5.30;99.90;;;;;;5030694;28;20216;-81
2022/01/28 01:28:29;;;;;;;17.70;5.13;;;;;;;;;;5005020;28;20081;-80
2022/01/28 01:30:57;;;;;;;16.88;4.93;;;5.40;99.90;;;;;;5024461;28;20053;-80
2022/01/28 01:33:22;;;;;;;14.73;5.13;;;5.30;99.90;;;;;;5013666;28;20077;-80
2022/01/28 01:35:48;;;;;;;16.63;6.22;;;5.40;99.90;;;;;;5024630;28;20130;-80
2022/01/28 01:38:14;;;;;;;21.88;5.25;;;5.40;99.90;;;;;;5010574;28;20413;-81
2022/01/28 01:40:50;;;;;;;24.10;6.80;;;5.40;99.90;;;;;;4997556;28;20132;-80
2022/01/28 01:43:29;;;;;;;21.50;5.38;;;5.30;99.90;;;;;;4995034;28;20128;-80
2022/01/28 01:46:19;;;;;;;19.42;5.75;;;5.40;99.90;;;;;;4996300;28;20441;-80
2022/01/28 01:54:13;;;;;;;16.33;6.07;;;5.40;99.90;;;;;;5029813;28;20050;-80
2022/01/28 01:56:40;;;;;;;18.50;5.32;;;5.40;99.90;;;;;;5009245;28;20037;-80
2022/01/28 01:59:07;;;;;;;15.52;4.93;;;5.40;99.90;;;;;;5000458;28;20508;-80
2022/01/28 02:01:34;;;;;;;19.70;6.65;;;5.40;99.90;;;;;;5011801;28;20029;-80
2022/01/28 02:03:59;;;;;;;24.23;6.03;;;5.40;99.90;;;;;;5012571;28;20041;-80
2022/01/28 02:06:25;;;;;;;15.85;6.57;;;5.40;99.90;;;;;;4999712;28;20114;-80
2022/01/28 02:08:51;;;;;;;18.20;5.50;;;5.40;99.90;;;;;;4995055;28;20501;-80
2022/01/28 02:11:18;;;;;;;21.13;5.65;;;5.40;99.90;;;;;;5012781;28;20048;-81
2022/01/28 02:13:49;;;;;;;14.48;5.32;;;5.40;99.90;;;;;;5018330;28;20098;-80
2022/01/28 02:16:15;;;;;;;21.85;5.85;;;5.40;99.90;;;;;;5009517;28;20042;-80
2022/01/28 02:18:41;;;;;;;21.88;6.38;;;5.40;99.90;;;;;;5001492;28;20049;-80
2022/01/28 02:21:10;;;;;;;17.63;5.22;;;5.40;99.90;;;;;;5011902;28;20431;-80
2022/01/28 02:23:36;;;;;;;18.45;5.38;;;5.40;99.90;;;;;;5011618;28;20065;-80
2022/01/28 02:26:03;;;;;;;8.88;4.90;;;5.40;99.90;;;;;;5034532;28;20041;-80
2022/01/28 02:28:34;;;;;;;17.40;5.35;;;5.40;99.90;;;;;;5015031;28;20054;-80
2022/01/28 02:31:05;;;;;;;12.40;4.78;;;;;;;;;;4979723;28;20128;-80
2022/01/28 02:33:31;;;;;;;27.08;5.95;;;5.40;99.90;;;;;;5012437;28;20052;-81
2022/01/28 02:36:04;;;;;;;16.17;6.10;;;5.50;99.90;;;;;;5010994;28;20053;-80
2022/01/28 02:38:30;;;;;;;16.88;6.40;;;5.40;99.90;;;;;;5030266;28;20037;-80
2022/01/28 02:40:59;;;;;;;11.98;5.40;;;5.40;99.90;;;;;;4998670;28;20509;-80
2022/01/28 02:46:06;;;;;;;19.00;5.53;;;5.50;99.90;;;;;;5013278;28;20572;-80
2022/01/28 02:48:33;;;;;;;18.95;7.13;;;5.50;99.90;;;;;;5015793;28;20665;-80
2022/01/28 02:53:28;;;;;;;13.93;5.50;;;5.50;99.90;;;;;;5011893;28;20045;-80
2022/01/28 02:56:03;;;;;;;16.63;5.88;;;5.50;99.90;;;;;;5014946;28;20073;-75
2022/01/28 02:58:29;;;;;;;26.75;6.32;;;5.50;99.90;;;;;;5021798;28;20104;-76
2022/01/28 03:00:58;;;;;;;23.00;5.80;;;5.50;99.90;;;;;;5010758;28;20045;-75
2022/01/28 03:03:24;;;;;;;18.38;4.95;;;5.50;99.90;;;;;;5014163;28;20045;-75
2022/01/28 03:05:53;;;;;;;26.00;6.53;;;5.50;99.90;;;;;;5011192;28;20168;-75
2022/01/28 03:08:24;;;;;;;17.13;5.55;;;5.50;99.90;;;;;;4993777;28;20044;-76
2022/01/28 03:14:00;;;;;;;26.50;6.68;;;5.50;99.90;;;;;;5010500;28;20065;-75
2022/01/28 03:16:29;;;;;;;14.40;5.85;;;5.40;99.90;;;;;;4997735;28;20080;-74
2022/01/28 03:19:15;;;;;;;14.70;4.53;;;5.40;99.90;;;;;;4998951;28;20064;-74
2022/01/28 03:21:44;;;;;;;23.35;7.50;;;5.40;99.90;;;;;;5029317;28;20077;-74
2022/01/28 03:24:12;;;;;;;13.13;5.03;;;5.40;99.90;;;;;;5012724;28;20041;-76
2022/01/28 03:26:39;;;;;;;23.48;6.03;;;5.40;99.90;;;;;;4995727;28;20708;-74
2022/01/28 03:29:05;;;;;;;12.20;4.40;;;5.30;99.90;;;;;;4997409;28;20146;-74
2022/01/28 03:31:31;;;;;;;24.23;5.45;;;;;;;;;;5014802;28;20127;-74
2022/01/28 03:33:57;;;;;;;18.08;5.50;;;;;;;;;;5017703;28;20099;-74
2022/01/28 03:36:24;;;;;;;14.88;5.32;;;;;;;;;;4996874;28;20552;-74
2022/01/28 03:38:50;;;;;;;19.33;6.97;;;;;;;;;;4999158;28;20033;-74
2022/01/28 03:41:17;;;;;;;24.48;6.50;;;;;;;;;;4997139;28;20052;-74
2022/01/28 03:43:46;;;;;;;21.73;6.07;;;;;;;;;;4998399;28;20037;-74
2022/01/28 03:46:13;;;;;;;20.80;5.32;;;;;;;;;;4996088;28;20041;-74
2022/01/28 03:48:40;;;;;;;17.15;5.32;;;5.30;99.90;;;;;;5016083;28;20045;-75
2022/01/28 03:51:06;;;;;;;11.38;5.15;;;5.30;99.90;;;;;;5015209;28;20118;-75
2022/01/28 03:53:32;;;;;;;23.23;5.55;;;5.20;99.90;;;;;;5012452;28;20200;-74
2022/01/28 03:55:58;;;;;;;17.17;5.88;;;5.30;99.90;;;;;;5014106;28;20045;-75
2022/01/28 03:58:27;;;;;;;14.55;5.07;;;5.30;99.90;;;;;;5011976;28;20036;-75
2022/01/28 04:00:54;;;;;;;23.00;5.93;;;5.30;99.90;;;;;;5038682;28;20083;-75
2022/01/28 04:13:51;;;;;;;22.45;7.05;;;5.30;99.90;;;;;;5021710;28;20234;-75
2022/01/28 04:18:50;;;;;;;19.65;5.93;;;5.30;99.90;;;;;;5001904;28;20119;-75
2022/01/28 04:21:16;;;;;;;21.83;5.60;;;5.40;99.90;;;;;;5012284;28;20056;-75
2022/01/28 04:23:41;;;;;;;21.90;6.13;;;5.30;99.90;;;;;;4995972;28;20050;-75
2022/01/28 04:26:07;;;;;;;16.95;5.78;;;5.30;99.90;;;;;;4987638;28;20029;-76
2022/01/28 04:28:33;;;;;;;15.93;5.28;;;5.30;99.90;;;;;;4994419;28;20068;-75
2022/01/28 04:30:59;;;;;;;17.83;6.07;;;5.30;99.90;;;;;;4997520;28;20426;-75
2022/01/28 04:33:28;;;;;;;28.65;6.85;;;;;;;;;;5011233;28;20049;-75
2022/01/28 04:35:56;;;;;;;20.20;6.18;;;;;;;;;;4980683;28;20044;-75
2022/01/28 04:38:34;;;;;;;20.20;5.47;;;;;;;;;;5002500;28;20095;-75
2022/01/28 04:41:10;;;;;;;24.40;5.68;;;;;;;;;;5013986;28;20163;-75
2022/01/28 04:43:46;;;;;;;23.70;5.25;;;;;;;;;;5004018;28;20152;-75
2022/01/28 04:49:02;;;;;;;21.13;7.13;;;;;;;;;;5017176;28;20658;-75
2022/01/28 04:54:25;;;;;;;20.70;5.82;;;;;;;;;;4998709;28;20593;-75
2022/01/28 04:57:11;;;;;;;21.20;7.25;;;;;;;;;;4987436;28;20049;-75
2022/01/28 05:13:14;;;;;;;18.58;5.40;;;;;;;;;;5012456;28;20057;-75
2022/01/28 05:28:46;;;;;;;26.90;6.47;;;;;;;;;;4970222;28;20053;-75
2022/01/28 05:31:12;;;;;;;16.70;5.60;;;;;;;;;;5003585;28;20478;-75
2022/01/28 05:33:38;;;;;;;17.45;5.15;;;5.30;99.90;;;;;;4954495;28;20449;-76
2022/01/28 05:36:04;;;;;;;18.70;6.35;;;5.20;99.90;;;;;;4957618;28;20042;-75
2022/01/28 05:38:30;;;;;;;12.13;4.88;;;5.20;99.50;;;;;;4987312;28;20057;-75
2022/01/28 05:40:55;;;;;;;23.48;5.00;;;5.10;99.60;;;;;;4986862;28;20049;-75
2022/01/28 05:43:21;;;;;;;20.05;5.90;;;5.10;99.40;;;;;;4956265;28;20061;-75
2022/01/28 05:45:47;;;;;;;14.93;6.07;;;5.10;99.30;;;;;;4976903;28;20360;-75
2022/01/28 05:48:12;;;;;;;16.63;6.10;;;5.10;99.50;;;;;;4973383;28;20050;-75
2022/01/28 05:50:38;;;;;;;21.55;5.60;;;5.10;99.50;;;;;;4989774;28;20050;-75
2022/01/28 05:53:04;;;;;;;19.80;5.18;;;5.10;99.90;;;;;;4989632;28;20122;-75
2022/01/28 05:55:30;;;;;;;12.15;5.10;;;5.00;99.90;;;;;;4985674;28;20037;-75
2022/01/28 05:57:55;;;;;;;24.75;5.82;;;5.10;99.90;;;;;;5007375;28;20402;-75
2022/01/28 06:00:21;;;;;;;25.08;5.47;;;5.00;99.90;;;;;;4991133;28;20045;-75
2022/01/28 06:02:47;;;;;;;23.95;6.05;;;5.00;99.90;;;;;;4971558;28;20040;-75
2022/01/28 06:05:13;;;;;;;16.13;5.13;;;4.90;99.90;;;;;;4976049;28;20069;-75
2022/01/28 06:07:42;;;;;;;16.73;5.82;;;4.90;99.90;;;;;;4989434;28;20150;-75
2022/01/28 06:10:12;;;;;;;24.08;5.60;;;4.90;99.90;;;;;;4973575;28;20048;-75
2022/01/28 06:12:40;;;;;;;12.82;5.10;;;4.90;99.90;;;;;;4974870;28;20050;-75
2022/01/28 06:15:07;;;;;;;16.30;5.45;;;4.90;99.90;;;;;;4957841;28;20041;-75
2022/01/28 06:17:32;;;;;;;15.27;5.80;;;4.80;99.90;;;;;;4982969;28;20109;-75
2022/01/28 06:19:58;;;;;;;16.15;5.78;;;4.80;99.90;;;;;;4977338;28;20065;-75
2022/01/28 06:22:24;;;;;;;12.95;5.20;;;4.80;99.90;;;;;;4959817;28;20391;-76
2022/01/28 06:24:49;;;;;;;20.23;5.72;;;4.80;99.90;;;;;;5003128;28;20061;-75
2022/01/28 06:27:15;;;;;;;26.55;6.88;;;4.80;99.90;;;;;;4983336;28;20065;-75
2022/01/28 06:29:41;;;;;;;13.93;4.80;;;4.80;99.90;;;;;;4994878;28;20045;-75
2022/01/28 06:32:07;;;;;;;17.15;5.13;;;4.80;99.90;;;;;;5014784;28;20048;-75
2022/01/28 06:34:33;;;;;;;19.90;7.25;;;4.80;99.90;;;;;;4980733;28;20044;-75
2022/01/28 06:36:59;;;;;;;16.98;4.82;;;4.80;99.90;;;;;;4982164;28;20038;-76
2022/01/28 06:39:25;;;;;;;20.13;6.50;;;4.70;99.90;;;;;;4999845;28;20030;-75
2022/01/28 06:41:51;;;;;;;17.50;5.93;;;4.80;99.90;;;;;;5030278;28;20082;-75
2022/01/28 06:44:16;;;;;;;21.00;5.30;;;4.70;99.90;;;;;;4996627;28;20052;-75
2022/01/28 06:46:42;;;;;;;19.35;5.28;;;4.70;99.90;;;;;;4980690;28;20478;-75
2022/01/28 06:49:08;;;;;;;20.73;5.28;;;4.70;99.90;;;;;;5011660;28;20036;-76
2022/01/28 06:51:34;;;;;;;20.38;6.25;;;4.70;99.90;;;;;;4995600;28;20053;-75
2022/01/28 06:54:01;;;;;;;26.30;5.65;;;4.70;99.90;;;;;;4981647;28;20402;-76
2022/01/28 06:56:27;;;;;;;22.77;5.10;;;4.70;99.90;;;;;;5012419;28;20037;-76
2022/01/28 06:58:53;;;;;;;12.57;5.07;;;4.60;99.90;;;;;;4998164;28;20041;-75
2022/01/28 07:01:18;;;;;;;21.67;5.22;;;4.60;99.90;;;;;;5015024;28;20195;-75
2022/01/28 07:03:44;;;;;;;20.10;6.05;;;4.60;99.90;;;;;;5008742;28;20064;-76
2022/01/28 07:06:10;;;;;;;20.50;5.30;;;4.60;99.90;;;;;;4996845;28;20037;-75
2022/01/28 07:08:35;;;;;;;21.67;5.95;;;4.60;99.90;;;;;;4984967;28;20195;-75
2022/01/28 07:11:01;;;;;;;25.13;5.07;;;4.60;99.90;;;;;;4995187;28;20038;-75
2022/01/28 07:13:27;;;;;;;20.73;7.00;;;4.60;99.90;;;;;;5013441;28;20390;-74
2022/01/28 07:15:53;;;;;;;19.75;5.13;;;4.60;99.90;;;;;;5017233;28;20048;-74
2022/01/28 07:18:18;;;;;;;25.80;5.95;;;4.60;99.90;;;;;;5002483;28;20042;-74
2022/01/28 07:20:44;;;;;;;19.05;6.28;;;4.60;99.90;;;;;;4974487;28;20494;-75
2022/01/28 07:23:10;;;;;;;17.50;5.55;;;4.50;99.90;;;;;;4997964;28;20041;-75
2022/01/28 07:25:36;;;;;;;17.63;5.78;;;4.50;99.90;;;;;;5013212;28;20041;-75
2022/01/28 07:28:02;;;;;;;18.63;6.18;;;4.50;99.90;;;;;;5014604;28;20133;-74
2022/01/28 07:30:27;;;;;;;13.13;5.60;;;4.50;99.90;;;;;;5015087;28;20041;-75
2022/01/28 07:32:53;;;;;;;28.92;6.60;;;4.60;99.90;;;;;;5010352;28;20103;-74
2022/01/28 07:35:19;;;;;;;27.25;7.15;;;4.50;99.90;;;;;;5000900;28;20515;-75
2022/01/28 07:37:45;;;;;;;22.15;8.05;;;4.50;99.90;;;;;;5012061;28;20033;-75
2022/01/28 07:40:12;;;;;;;32.38;10.68;;;4.50;99.90;;;;;;5011396;28;20467;-74
2022/01/28 07:42:38;;;;;;;28.30;9.10;;;4.50;99.90;;;;;;4996711;28;20057;-74
2022/01/28 07:45:05;;;;;;;27.40;8.57;;;4.60;99.90;;;;;;5008452;28;20383;-74
2022/01/28 07:47:31;;;;;;;23.45;8.63;;;4.60;99.90;;;;;;4980172;28;20033;-74
2022/01/28 07:49:56;;;;;;;15.00;7.25;;;4.60;99.90;;;;;;4996658;28;20460;-73
2022/01/28 07:52:22;;;;;;;21.75;6.38;;;4.60;99.90;;;;;;4993759;28;20076;-74
2022/01/28 07:54:49;;;;;;;19.27;6.00;;;4.60;99.90;;;;;;5012186;28;20107;-78
2022/01/28 07:57:16;;;;;;;21.73;5.35;;;4.70;99.90;;;;;;5018577;28;20489;-86
2022/01/28 07:59:42;;;;;;;19.42;5.05;;;4.60;99.90;;;;;;4997069;28;20627;-88
2022/01/28 08:02:08;;;;;;;23.73;7.07;;;4.60;99.90;;;;;;5009068;28;20116;-87
2022/01/28 08:04:33;;;;;;;24.00;5.28;;;4.60;99.90;;;;;;4999226;28;20101;-87
2022/01/28 08:06:59;;;;;;;18.83;7.95;;;4.60;99.90;;;;;;4994067;28;20065;-86
2022/01/28 08:09:25;;;;;;;18.13;6.63;;;4.60;99.90;;;;;;5011799;28;20038;-87
2022/01/28 08:11:57;;;;;;;15.25;5.00;;;4.60;99.90;;;;;;5013792;28;20041;-87
2022/01/28 08:14:30;;;;;;;20.05;5.50;;;4.60;99.90;;;;;;5009165;28;20037;-86
2022/01/28 08:17:00;;;;;;;16.10;4.63;;;4.70;99.90;;;;;;4995810;28;20121;-87
2022/01/28 08:19:33;;;;;;;23.92;5.68;;;4.60;99.90;;;;;;4994560;28;20107;-86
2022/01/28 08:21:59;;;;;;;15.63;4.95;;;4.60;99.90;;;;;;4961901;28;20568;-87
2022/01/28 08:24:46;;;;;;;19.00;5.90;;;4.70;99.90;;;;;;4998430;28;20099;-85
2022/01/28 08:31:48;;;;;;;15.55;5.28;;;4.70;99.90;;;;;;4948922;28;20274;-84
2022/01/28 08:34:15;;;;;;;26.35;5.82;;;4.70;99.90;;;;;;4953222;28;20046;-86
2022/01/28 08:36:41;;;;;;;22.70;6.40;;;4.70;99.90;;;;;;5006812;28;20125;-85
2022/01/28 08:39:09;;;;;;;17.08;5.25;;;4.70;99.90;;;;;;4997920;28;20095;-85
2022/01/28 08:41:36;;;;;;;15.85;5.43;;;4.70;99.90;;;;;;4976251;28;20122;-85
2022/01/28 08:44:03;;;;;;;22.20;6.18;;;4.70;99.90;;;;;;4995596;28;20455;-86
2022/01/28 08:46:29;;;;;;;17.38;6.05;;;4.70;99.90;;;;;;4978357;28;20049;-86
2022/01/28 08:48:55;;;;;;;20.08;6.75;;;4.70;99.90;;;;;;4995655;28;20108;-86
2022/01/28 08:51:21;;;;;;;16.92;6.10;;;4.80;99.90;;;;;;4994861;28;20121;-86
2022/01/28 08:53:47;;;;;;;24.25;5.65;;;4.80;99.90;;;;;;4996616;28;20393;-87
2022/01/28 08:56:13;;;;;;;24.60;6.60;;;4.80;99.90;;;;;;4993501;28;20057;-87
2022/01/28 08:58:39;;;;;;;14.52;5.47;;;4.80;99.90;;;;;;4964775;28;20111;-87
2022/01/28 09:01:04;;;;;;;19.55;6.15;;;4.90;99.90;;;;;;4979831;28;20041;-87
2022/01/28 09:03:32;;;;;;;17.33;5.97;;;4.90;99.90;;;;;;4975145;28;20038;-87
2022/01/28 09:05:58;;;;;;;18.63;6.43;;;4.90;99.90;;;;;;4996900;28;20042;-87
2022/01/28 09:08:23;;;;;;;22.52;7.78;;;5.00;99.90;;;;;;4991986;28;20049;-87
2022/01/28 09:11:29;;;;;;;18.40;4.45;;;5.00;99.90;;;;;;4991157;28;20417;-87
2022/01/28 09:13:44;;;;;;;23.70;5.95;;;5.10;99.90;;;;;;4981122;28;20454;-87
2022/01/28 09:16:10;;;;;;;22.75;6.03;;;5.10;99.90;;;;;;4993038;28;20044;-87
2022/01/28 09:18:36;;;;;;;14.95;6.05;;;5.20;99.90;;;;;;4990283;28;20050;-87
2022/01/28 09:21:01;;;;;;;19.02;6.18;;;5.20;99.90;;;;;;4997514;28;20447;-87
2022/01/28 09:23:27;;;;;;;20.90;5.57;;;5.30;99.90;;;;;;4995006;28;20038;-88
2022/01/28 09:25:53;;;;;;;17.88;6.60;;;5.30;99.90;;;;;;4970130;28;20042;-87
2022/01/28 09:28:19;;;;;;;25.98;5.75;;;5.30;99.90;;;;;;4994191;28;20040;-87
2022/01/28 09:30:45;;;;;;;19.13;5.72;;;5.30;99.90;;;;;;4987295;28;20513;-87
2022/01/28 09:33:11;;;;;;;20.35;6.65;;;5.30;99.90;;;;;;4999448;28;20046;-87
2022/01/28 09:35:37;;;;;;;23.23;6.22;;;5.40;99.90;;;;;;5024234;28;20056;-79
2022/01/28 09:38:04;;;;;;;21.23;6.88;;;5.40;99.90;;;;;;5005668;28;20034;-81
2022/01/28 09:40:31;;;;;;;19.05;5.03;;;5.40;99.90;;;;;;4988829;28;20038;-88
2022/01/28 09:43:04;;;;;;;21.50;6.00;;;5.40;99.90;;;;;;4994751;28;20049;-81
2022/01/28 09:45:30;;;;;;;17.55;6.03;;;5.40;99.90;;;;;;4972982;28;20030;-80
2022/01/28 09:47:57;;;;;;;19.98;4.93;;;5.40;99.90;;;;;;4945294;28;20037;-80
2022/01/28 09:50:25;;;;;;;26.42;7.88;;;5.50;99.90;;;;;;4975590;28;20479;-80
2022/01/28 09:52:52;;;;;;;18.55;5.47;;;5.50;99.90;;;;;;4988720;28;20128;-80
2022/01/28 09:55:19;;;;;;;26.08;6.18;;;5.50;99.90;;;;;;5005235;28;20056;-80
2022/01/28 09:57:48;;;;;;;9.48;4.63;;;5.50;99.90;;;;;;4989487;28;20429;-79
2022/01/28 10:00:15;;;;;;;18.27;5.43;;;5.50;99.90;;;;;;4988107;28;20514;-80
2022/01/28 10:02:49;;;;;;;16.58;4.57;;;5.60;99.90;;;;;;5022587;28;20041;-79
2022/01/28 10:05:25;;;;;;;17.23;5.28;;;5.70;99.90;;;;;;4975008;28;20034;-87
2022/01/28 10:08:06;;;;;;;12.02;4.85;;;5.80;99.90;;;;;;5007289;28;20054;-87
2022/01/28 10:10:49;;;;;;;19.13;5.45;;;5.90;99.90;;;;;;4994981;28;20079;-89
2022/01/28 10:13:23;;;;;;;;;;;5.90;99.90;;;;;;5012595;28;20081;-89
2022/01/28 10:16:02;;;;;;;15.68;4.70;;;6.00;99.90;;;;;;5012447;28;20329;-88
2022/01/28 10:18:54;;;;;;;14.43;5.18;;;6.00;99.90;;;;;;4992208;28;20046;-89
2022/01/28 10:21:21;;;;;;;21.77;6.03;;;6.00;99.90;;;;;;4975495;28;20100;-89
2022/01/28 10:24:07;;;;;;;15.40;4.68;;;6.10;99.90;;;;;;4994669;28;20125;-88
2022/01/28 10:26:38;;;;;;;19.13;6.03;;;6.10;99.90;;;;;;4992996;28;20398;-89
2022/01/28 10:29:07;;;;;;;13.45;4.60;;;6.20;99.90;;;;;;5001369;28;20594;-89
2022/01/28 10:31:38;;;;;;;19.35;5.30;;;6.20;99.90;;;;;;5014664;28;20060;-88
2022/01/28 10:34:12;;;;;;;28.17;6.97;;;6.20;99.90;;;;;;5014637;28;20387;-87
2022/01/28 10:36:38;;;;;;;17.63;4.88;;;6.30;99.90;;;;;;5015576;28;20052;-88
2022/01/28 10:39:03;;;;;;;15.45;5.00;;;6.30;99.90;;;;;;5016350;28;20033;-87
2022/01/28 10:41:29;;;;;;;14.02;5.13;;;6.30;99.90;;;;;;5015603;28;20532;-88
2022/01/28 10:43:57;;;;;;;22.13;5.43;;;6.30;99.90;;;;;;5015122;28;20481;-87
2022/01/28 10:46:31;;;;;;;16.67;5.18;;;6.40;99.90;;;;;;5001840;28;20048;-88
2022/01/28 10:48:59;;;;;;;9.45;3.95;;;6.40;99.90;;;;;;4997790;28;20041;-88
2022/01/28 10:51:51;;;;;;;11.85;4.18;;;6.50;99.90;;;;;;5015175;28;20029;-87
2022/01/28 10:54:20;;;;;;;13.98;4.55;;;6.50;99.90;;;;;;5032107;28;20057;-88
2022/01/28 10:57:06;;;;;;;19.73;4.63;;;6.60;99.90;;;;;;4984109;28;20099;-88
2022/01/28 10:59:36;;;;;;;17.10;4.78;;;6.60;99.90;;;;;;5010273;28;20060;-89
2022/01/28 11:02:03;;;;;;;16.13;5.15;;;6.60;99.90;;;;;;5014669;28;20090;-89
2022/01/28 11:04:29;;;;;;;15.13;5.18;;;6.70;99.90;;;;;;5014074;28;20030;-89
2022/01/28 11:06:59;;;;;;;14.05;4.10;;;6.70;99.90;;;;;;5013745;28;20363;-88
2022/01/28 11:09:25;;;;;;;20.77;5.40;;;6.80;99.90;;;;;;5012108;28;20123;-88
2022/01/28 11:11:53;;;;;;;14.70;3.97;;;6.80;99.90;;;;;;4999943;28;20059;-89
2022/01/28 11:14:20;;;;;;;12.95;4.47;;;6.90;99.90;;;;;;5017962;28;20095;-89
2022/01/28 11:16:46;;;;;;;19.10;5.78;;;6.80;99.90;;;;;;5002552;28;20099;-88
2022/01/28 11:19:16;;;;;;;34.30;8.45;;;6.90;99.90;;;;;;5012068;28;20052;-88
2022/01/28 11:22:09;;;;;;;13.88;5.22;;;6.90;99.90;;;;;;5001403;28;20067;-80
2022/01/28 11:24:38;;;;;;;;;;;6.90;99.90;;;;;;5031460;28;20045;-80
2022/01/28 11:27:24;;;;;;;11.60;4.57;;;6.90;99.80;;;;;;4979905;28;19917;-78
2022/01/28 11:29:50;;;;;;;19.48;5.88;;;6.80;99.90;;;;;;5013188;28;20038;-81
2022/01/28 11:32:18;;;;;;;13.10;4.07;;;6.80;99.90;;;;;;5031224;28;20051;-78
2022/01/28 11:34:57;;;;;;;17.05;6.53;;;6.80;99.90;;;;;;5000200;28;20087;-75
2022/01/28 11:37:30;;;;;;;15.52;4.70;;;6.80;99.90;;;;;;5009362;28;20536;-75
2022/01/28 11:40:15;;;;;;;19.25;5.40;;;6.90;99.90;;;;;;4993308;28;20097;-75
2022/01/28 11:42:41;;;;;;;17.80;5.50;;;6.90;99.90;;;;;;5029035;28;20064;-75
2022/01/28 11:45:09;;;;;;;21.15;4.72;;;7.00;99.90;;;;;;5009371;28;20080;-75
2022/01/28 11:47:41;;;;;;;11.35;3.97;;;7.10;99.90;;;;;;4993886;28;20042;-75
2022/01/28 11:50:09;;;;;;;23.40;4.90;;;7.30;99.90;;;;;;5009692;28;20047;-75
2022/01/28 11:52:41;;;;;;;14.73;4.30;;;7.50;99.90;;;;;;5026751;28;20045;-75
2022/01/28 11:55:27;;;;;;;12.82;4.68;;;7.60;99.90;;;;;;5010798;28;20041;-75
2022/01/28 11:58:08;;;;;;;11.23;4.45;;;7.80;99.90;;;;;;4985836;28;20076;-75
2022/01/28 12:00:35;;;;;;;21.48;4.40;;;8.00;99.90;;;;;;5030162;28;20561;-82
2022/01/28 12:03:13;;;;;;;15.75;5.90;;;8.20;99.50;;;;;;5013342;28;20593;-82
2022/01/28 12:05:39;;;;;;;13.73;4.70;;;8.50;99.40;;;;;;5014931;28;20034;-82
2022/01/28 12:08:07;;;;;;;19.50;5.13;;;8.70;98.00;;;;;;5013863;28;20099;-83
2022/01/28 12:10:39;;;;;;;13.10;5.05;;;8.80;97.40;;;;;;5010761;28;20037;-83
2022/01/28 12:13:15;;;;;;;11.15;4.10;;;9.00;96.40;;;;;;5012326;28;20464;-83
2022/01/28 12:16:09;;;;;;;18.33;5.35;;;9.20;95.00;;;;;;5009441;28;20087;-83
2022/01/28 12:18:55;;;;;;;13.68;4.03;;;9.50;95.30;;;;;;4993628;28;20037;-83
2022/01/28 12:21:25;;;;;;;20.35;4.72;;;9.70;94.80;;;;;;5014922;28;20080;-83
2022/01/28 12:23:53;;;;;;;16.75;5.03;;;9.80;94.60;;;;;;5026803;28;20405;-83
2022/01/28 12:26:19;;;;;;;19.23;4.68;;;10.00;93.30;;;;;;5012343;28;20713;-83
2022/01/28 12:28:56;;;;;;;15.55;5.65;;;10.00;91.80;;;;;;5010379;28;20514;-82
2022/01/28 12:31:24;;;;;;;15.35;5.40;;;9.90;90.30;;;;;;4995805;28;20125;-82
2022/01/28 12:33:59;;;;;;;19.05;5.03;;;10.00;91.60;;;;;;5010680;28;20049;-83
2022/01/28 12:36:37;;;;;;;15.23;3.95;;;10.10;91.50;;;;;;5031125;28;20107;-83
2022/01/28 12:39:21;;;;;;;16.77;5.05;;;10.20;89.50;;;;;;5019447;28;20094;-87
2022/01/28 12:42:04;;;;;;;16.50;4.28;;;10.20;88.50;;;;;;5016936;28;20540;-82
2022/01/28 12:44:32;;;;;;;12.60;5.38;;;10.20;89.00;;;;;;5015322;28;20482;-80
2022/01/28 12:47:01;;;;;;;14.27;3.97;;;10.00;87.40;;;;;;5013225;28;20120;-82
2022/01/28 12:49:31;;;;;;;13.57;3.28;;;10.00;88.00;;;;;;5026922;28;20437;-81
2022/01/28 12:52:00;;;;;;;7.90;3.40;;;9.90;87.90;;;;;;4991208;28;20069;-84
2022/01/28 12:54:44;;;;;;;25.83;5.28;;;9.80;88.90;;;;;;4997530;28;20049;-85
2022/01/28 12:57:12;;;;;;;18.92;4.43;;;9.60;89.10;;;;;;5005499;28;20064;-85
2022/01/28 12:59:39;;;;;;;17.05;4.57;;;9.60;89.90;;;;;;5004660;28;20118;-84
2022/01/28 13:02:06;;;;;;;9.20;4.03;;;9.60;89.70;;;;;;5011160;28;20048;-84
2022/01/28 13:04:49;;;;;;;15.20;3.92;;;9.50;89.30;;;;;;5011795;28;20058;-84
2022/01/28 13:09:56;;;;;;;12.73;3.85;;;9.50;89.40;;;;;;5010873;28;20132;-85
2022/01/28 13:12:32;;;;;;;12.45;3.88;;;9.50;89.50;;;;;;5008452;28;20063;-84
2022/01/28 13:15:07;;;;;;;12.65;4.60;;;9.40;89.90;;;;;;5000395;28;20038;-84
2022/01/28 13:17:33;;;;;;;17.65;5.00;;;9.30;87.90;;;;;;4996033;28;20065;-84
2022/01/28 13:20:01;;;;;;;8.60;3.10;;;9.20;89.50;;;;;;5009979;28;20072;-84
2022/01/28 13:22:30;;;;;;;17.00;4.10;;;9.30;90.20;;;;;;5009615;28;20026;-86
2022/01/28 13:24:57;;;;;;;16.45;5.18;;;9.20;89.30;;;;;;4979375;28;20033;-84
2022/01/28 13:27:41;;;;;;;16.27;4.45;;;9.30;90.10;;;;;;5003105;28;20041;-83
2022/01/28 13:30:15;;;;;;;11.52;4.00;;;9.30;87.80;;;;;;4999280;28;20038;-86
2022/01/28 13:32:45;;;;;;;14.55;3.83;;;9.30;89.30;;;;;;5016724;28;20053;-85
2022/01/28 13:35:17;;;;;;;9.30;3.03;;;9.40;89.90;;;;;;5003007;28;20398;-85
2022/01/28 13:37:54;;;;;;;10.30;4.47;;;9.40;87.90;;;;;;5004143;28;20049;-76
2022/01/28 13:40:29;;;;;;;12.40;3.20;;;9.30;88.00;;;;;;5001165;28;20052;-76
2022/01/28 13:43:13;;;;;;;14.85;4.00;;;9.30;88.90;;;;;;4999738;28;20042;-84
2022/01/28 13:45:40;;;;;;;12.00;3.78;;;9.30;89.30;;;;;;5001106;28;20129;-82
2022/01/28 13:48:08;;;;;;;9.60;3.15;;;9.30;90.10;;;;;;5004544;28;20038;-82
2022/01/28 13:50:41;;;;;;;18.77;4.28;;;9.30;90.30;;;;;;4985994;28;20183;-83
2022/01/28 13:56:01;;;;;;;9.82;2.78;;;9.80;89.60;;;;;;5006144;28;20080;-83
2022/01/28 13:58:28;;;;;;;11.25;3.03;;;10.40;87.80;;;;;;4988391;28;20121;-83
2022/01/28 14:00:54;;;;;;;8.25;2.90;;;10.90;86.20;;;;;;5004986;28;20338;-82
2022/01/28 14:03:26;;;;;;;11.00;3.42;;;11.40;84.80;;;;;;4991398;28;20141;-82
2022/01/28 14:05:58;;;;;;;13.60;3.40;;;11.80;82.40;;;;;;5002988;28;20475;-83
2022/01/28 14:08:50;;;;;;;14.85;4.30;;;;;;;;;;4996672;28;20441;-83
2022/01/28 14:11:22;;;;;;;11.98;4.10;;;12.10;81.00;;;;;;5005706;28;20062;-83
2022/01/28 14:14:16;;;;;;;11.10;3.90;;;12.10;77.40;;;;;;5006072;28;20049;-83
2022/01/28 14:16:56;;;;;;;14.35;5.03;;;11.70;79.00;;;;;;5004179;28;20053;-82
2022/01/28 14:19:27;;;;;;;15.13;4.43;;;11.30;79.60;;;;;;5002325;28;20140;-82
2022/01/28 14:21:54;;;;;;;14.35;3.58;;;10.80;80.20;;;;;;5004785;28;20406;-82
2022/01/28 14:24:29;;;;;;;15.77;3.42;;;10.40;81.50;;;;;;5000728;28;20474;-82
2022/01/28 14:29:50;;;;;;;11.25;4.05;;;;;;;;;;5001995;28;20359;-83
2022/01/28 14:32:19;;;;;;;11.38;4.38;;;9.80;83.60;;;;;;5016091;28;20088;-82
2022/01/28 14:34:47;;;;;;;7.55;2.78;;;9.40;86.60;;;;;;5002913;28;20525;-83
2022/01/28 14:37:15;;;;;;;21.00;4.18;;;9.20;87.70;;;;;;5018113;28;20046;-82
2022/01/28 14:39:41;;;;;;;11.27;3.80;;;9.00;88.90;;;;;;5001912;28;20046;-82
2022/01/28 14:42:09;;;;;;;10.70;4.65;;;8.80;89.80;;;;;;5003985;28;20046;-82